Time;durP1;ratioP1;P1;durP2;ratioP2;P2;SDS_P1;SDS_P2;PMS_P1;PMS_P2;Temp;Humidity;BMP_temperature;BMP_pressure;BME280_temperature;BME280_humidity;BME280_pressure;Samples;Min_cycle;Max_cycle;Signal;HPM_P1;HPM_P2
2022/12/13 07:55:53;;;;;;;27.83;14.77;;;-11.40;99.90;;;;;;5137777;27;20294;-79
2022/12/13 07:58:19;;;;;;;25.30;10.23;;;-11.40;99.90;;;;;;5138018;27;20499;-79
2022/12/13 08:00:46;;;;;;;25.90;12.03;;;-11.50;99.90;;;;;;5138229;27;20441;-79
2022/12/13 08:03:12;;;;;;;19.60;11.00;;;-11.50;99.90;;;;;;5137716;28;20580;-79
2022/12/13 08:05:38;;;;;;;16.90;10.67;;;-11.40;99.90;;;;;;5137612;28;20437;-79
2022/12/13 08:08:06;;;;;;;18.00;10.00;;;-11.30;99.90;;;;;;5138408;28;20468;-79
2022/12/13 08:10:32;;;;;;;19.87;9.13;;;-11.10;99.90;;;;;;5139859;27;20253;-79
2022/12/13 08:13:01;;;;;;;25.17;10.57;;;-10.90;99.90;;;;;;5140021;27;20491;-79
2022/12/13 08:15:27;;;;;;;21.97;11.83;;;-10.70;99.90;;;;;;5139752;27;20203;-80
2022/12/13 08:17:55;;;;;;;24.93;11.47;;;-10.40;99.90;;;;;;5140088;27;20411;-81
2022/12/13 08:20:21;;;;;;;29.80;12.37;;;-10.20;99.90;;;;;;5139061;28;20182;-79
2022/12/13 08:22:55;;;;;;;28.97;12.50;;;-9.90;99.90;;;;;;5138244;28;20412;-79
2022/12/13 08:25:20;;;;;;;24.37;13.07;;;-9.60;99.90;;;;;;5139681;28;20672;-80
2022/12/13 08:27:46;;;;;;;23.77;10.37;;;-9.40;99.90;;;;;;5142058;27;20420;-79
2022/12/13 08:30:12;;;;;;;24.03;9.43;;;-9.10;99.90;;;;;;5148844;27;20177;-79
2022/12/13 08:32:37;;;;;;;20.50;10.27;;;-8.90;99.90;;;;;;5141225;27;20178;-79
2022/12/13 08:35:03;;;;;;;24.27;9.77;;;-8.60;99.90;;;;;;5137488;27;20732;-79
2022/12/13 08:37:29;;;;;;;14.93;8.43;;;-8.40;99.90;;;;;;5136167;28;20180;-79
2022/12/13 08:39:55;;;;;;;18.67;9.90;;;-8.40;99.90;;;;;;5136387;28;20228;-80
2022/12/13 08:42:20;;;;;;;20.00;11.53;;;-8.20;99.90;;;;;;5138442;27;20182;-79
2022/12/13 08:44:48;;;;;;;18.47;10.80;;;-8.30;99.90;;;;;;5135979;28;20180;-79
2022/12/13 08:47:15;;;;;;;23.10;10.07;;;-8.10;99.90;;;;;;5136356;28;20675;-80
2022/12/13 08:49:40;;;;;;;19.57;9.73;;;-7.90;99.90;;;;;;5138083;27;20975;-80
2022/12/13 08:52:06;;;;;;;11.77;7.13;;;-7.70;99.90;;;;;;5137337;27;20440;-80
2022/12/13 08:54:32;;;;;;;12.93;6.87;;;-7.60;99.90;;;;;;5137426;28;20210;-79
2022/12/13 08:56:58;;;;;;;14.60;8.33;;;-7.60;99.90;;;;;;5139375;27;20246;-80
2022/12/13 08:59:24;;;;;;;14.67;10.33;;;-7.50;99.90;;;;;;5138558;28;20445;-80
2022/12/13 09:01:51;;;;;;;17.17;9.60;;;-7.30;99.90;;;;;;5139762;27;20190;-80
2022/12/13 09:04:16;;;;;;;21.00;9.10;;;-7.20;99.90;;;;;;5138777;28;20450;-80
2022/12/13 09:06:42;;;;;;;14.13;9.00;;;-7.20;99.90;;;;;;5128105;28;20460;-80
2022/12/13 09:09:08;;;;;;;15.03;8.37;;;-7.30;99.90;;;;;;5126548;28;20168;-80
2022/12/13 09:11:34;;;;;;;16.43;7.23;;;-7.30;99.90;;;;;;5126209;28;20189;-79
2022/12/13 09:14:00;;;;;;;10.10;7.87;;;-7.10;99.90;;;;;;5136937;28;20237;-79
2022/12/13 09:16:25;;;;;;;11.03;7.47;;;-6.90;99.90;;;;;;5135607;28;20195;-80
2022/12/13 09:18:52;;;;;;;14.03;7.50;;;-6.60;99.90;;;;;;5126060;28;20240;-80
2022/12/13 09:21:18;;;;;;;9.27;6.30;;;-6.50;99.90;;;;;;5120294;28;20178;-80
2022/12/13 09:23:44;;;;;;;11.67;7.33;;;-6.30;99.90;;;;;;5120586;28;20428;-80
2022/12/13 09:26:12;;;;;;;12.77;7.33;;;-6.10;99.90;;;;;;5122398;28;20440;-80
2022/12/13 09:28:38;;;;;;;12.53;7.60;;;-6.00;99.90;;;;;;5120495;28;20638;-80
2022/12/13 09:31:16;;;;;;;11.77;8.13;;;-6.00;99.90;;;;;;5120139;28;20470;-80
2022/12/13 09:33:42;;;;;;;11.80;7.37;;;-5.80;99.90;;;;;;5120309;28;20495;-80
2022/12/13 09:36:12;;;;;;;12.67;7.83;;;-5.60;99.90;;;;;;5120777;28;20438;-80
2022/12/13 09:38:38;;;;;;;11.83;7.90;;;-5.40;99.90;;;;;;5122318;28;20420;-80
2022/12/13 09:41:36;;;;;;;10.40;7.23;;;-5.20;99.90;;;;;;5122332;28;20401;-81
2022/12/13 09:44:22;;;;;;;10.80;7.13;;;-5.00;99.90;;;;;;5116336;28;20424;-80
2022/12/13 09:46:49;;;;;;;11.10;7.00;;;-5.10;99.90;;;;;;5120583;28;20508;-80
2022/12/13 09:49:27;;;;;;;9.37;6.93;;;-5.20;99.90;;;;;;5120714;28;20918;-81
2022/12/13 09:51:58;;;;;;;9.33;6.53;;;-5.40;99.90;;;;;;5121560;28;20412;-82
2022/12/13 09:54:25;;;;;;;10.87;7.17;;;-5.20;99.90;;;;;;5121398;28;20498;-81
2022/12/13 09:56:52;;;;;;;13.47;7.53;;;-5.20;99.90;;;;;;5120628;28;20444;-81
2022/12/13 09:59:28;;;;;;;15.73;9.40;;;-5.10;99.90;;;;;;5122599;28;20424;-81
2022/12/13 10:01:56;;;;;;;10.27;7.30;;;-5.00;99.90;;;;;;5121481;28;20413;-81
2022/12/13 10:04:22;;;;;;;11.63;7.60;;;-4.90;99.90;;;;;;5122144;28;20463;-81
2022/12/13 10:06:52;;;;;;;15.10;7.47;;;-5.00;99.90;;;;;;5121441;28;20444;-81
2022/12/13 10:09:18;;;;;;;13.17;7.80;;;-4.90;99.90;;;;;;5121769;28;20413;-81
2022/12/13 10:11:52;;;;;;;12.67;7.53;;;-4.80;99.90;;;;;;5121860;28;20456;-81
2022/12/13 10:14:27;;;;;;;11.13;7.13;;;-4.60;99.90;;;;;;5122869;28;20195;-81
2022/12/13 10:16:56;;;;;;;11.10;8.03;;;-4.70;99.90;;;;;;5122532;28;20433;-81
2022/12/13 10:19:33;;;;;;;10.23;7.83;;;-4.50;99.90;;;;;;5122635;28;20425;-81
2022/12/13 10:22:01;;;;;;;10.87;6.67;;;-4.30;99.90;;;;;;5124028;28;20389;-82
2022/12/13 10:24:31;;;;;;;8.77;6.77;;;-4.00;99.90;;;;;;5124032;28;20410;-81
2022/12/13 10:27:08;;;;;;;10.03;7.27;;;-3.70;99.90;;;;;;5122481;28;20437;-81
2022/12/13 10:29:54;;;;;;;11.50;8.07;;;-3.80;99.90;;;;;;5123395;28;20902;-81
2022/12/13 10:32:20;;;;;;;12.80;9.33;;;-4.00;99.90;;;;;;5123605;28;20416;-81
2022/12/13 10:34:46;;;;;;;10.53;7.30;;;-4.30;99.90;;;;;;5121214;28;20449;-81
2022/12/13 10:37:30;;;;;;;12.30;7.57;;;-4.40;99.90;;;;;;5122236;28;20532;-81
2022/12/13 10:39:57;;;;;;;12.03;8.33;;;-4.20;99.90;;;;;;5122503;28;20413;-81
2022/12/13 10:42:23;;;;;;;13.40;7.10;;;-4.00;99.90;;;;;;5122227;28;20421;-81
2022/12/13 10:45:23;;;;;;;10.87;7.60;;;-4.00;99.90;;;;;;5121888;28;20827;-81
2022/12/13 10:47:49;;;;;;;14.20;7.97;;;-4.00;99.90;;;;;;5123442;28;20745;-81
2022/12/13 10:50:27;;;;;;;11.70;7.20;;;-3.90;99.90;;;;;;5122886;28;20187;-81
2022/12/13 10:52:54;;;;;;;12.03;7.47;;;-3.90;99.90;;;;;;5130300;28;20175;-80
2022/12/13 10:55:23;;;;;;;9.37;6.67;;;-4.00;99.90;;;;;;5132616;28;20493;-80
2022/12/13 10:57:54;;;;;;;9.20;6.83;;;-4.10;99.90;;;;;;5131950;28;20459;-80
2022/12/13 11:00:30;;;;;;;11.77;7.43;;;-4.40;99.90;;;;;;5122173;28;20409;-80
2022/12/13 11:02:55;;;;;;;11.17;7.10;;;-4.40;99.90;;;;;;5119671;28;20417;-80
2022/12/13 11:05:32;;;;;;;10.70;7.80;;;-4.50;99.90;;;;;;5119449;28;20541;-80
2022/12/13 11:08:26;;;;;;;13.07;9.40;;;-4.60;99.90;;;;;;5120139;28;20509;-81
2022/12/13 11:11:00;;;;;;;22.20;13.00;;;-4.50;99.90;;;;;;5119002;28;20411;-80
2022/12/13 11:13:53;;;;;;;11.50;8.47;;;-4.80;99.90;;;;;;5119800;28;20417;-81
2022/12/13 11:16:39;;;;;;;13.30;9.13;;;-4.70;99.90;;;;;;5118424;28;20558;-81
2022/12/13 11:19:33;;;;;;;11.80;9.00;;;-4.60;99.90;;;;;;5120329;28;20878;-81
2022/12/13 11:22:00;;;;;;;12.03;7.90;;;-4.80;99.90;;;;;;5120792;28;20397;-81
2022/12/13 11:24:50;;;;;;;11.77;8.70;;;-5.00;99.90;;;;;;5120702;28;20914;-81
2022/12/13 11:27:48;;;;;;;12.70;7.87;;;-4.80;99.90;;;;;;5120892;28;20456;-81
2022/12/13 11:30:36;;;;;;;12.93;8.27;;;-5.20;99.90;;;;;;5119088;28;20471;-81
2022/12/13 11:33:47;;;;;;;11.93;8.43;;;-5.10;99.90;;;;;;5119271;28;20428;-81
2022/12/13 11:36:37;;;;;;;12.60;7.93;;;-4.90;99.90;;;;;;5095772;28;20457;-81
2022/12/13 11:39:15;;;;;;;13.93;9.03;;;-4.70;99.90;;;;;;5119190;28;20914;-80
2022/12/13 11:42:13;;;;;;;10.47;8.80;;;-4.20;99.90;;;;;;5121364;28;20389;-81
2022/12/13 11:44:50;;;;;;;12.33;9.43;;;-4.10;99.90;;;;;;5087062;28;20480;-81
2022/12/13 11:47:23;;;;;;;13.03;8.87;;;-4.00;99.90;;;;;;5120296;28;20526;-81
2022/12/13 11:49:49;;;;;;;12.00;8.07;;;-4.00;99.90;;;;;;5118983;28;20394;-81
2022/12/13 11:52:36;;;;;;;14.17;9.13;;;-4.40;99.90;;;;;;5119265;28;20417;-81
2022/12/13 11:55:23;;;;;;;14.50;8.83;;;-4.70;99.90;;;;;;5118144;28;20733;-80
2022/12/13 11:57:58;;;;;;;9.90;7.40;;;-4.20;99.90;;;;;;5120204;28;20409;-81
2022/12/13 12:00:39;;;;;;;11.87;8.77;;;-3.80;99.90;;;;;;5118698;28;20431;-81
2022/12/13 12:03:16;;;;;;;12.00;8.37;;;-4.10;99.90;;;;;;5119829;28;20398;-81
2022/12/13 12:05:58;;;;;;;12.30;9.03;;;-4.40;99.90;;;;;;5119315;28;20478;-80
2022/12/13 12:08:46;;;;;;;13.60;9.20;;;-4.30;99.90;;;;;;5117885;28;20409;-80
2022/12/13 12:11:14;;;;;;;14.57;9.53;;;-4.20;99.90;;;;;;5118512;28;20829;-80
2022/12/13 12:13:51;;;;;;;12.17;8.93;;;-4.20;99.90;;;;;;5119189;28;20441;-80
2022/12/13 12:16:43;;;;;;;12.67;7.73;;;-4.50;99.90;;;;;;5117504;28;20797;-81
2022/12/13 12:19:14;;;;;;;12.43;9.67;;;-5.10;99.90;;;;;;5110734;28;20774;-81
2022/12/13 12:21:46;;;;;;;11.63;8.20;;;-5.20;99.90;;;;;;5120384;28;20497;-81
2022/12/13 12:24:27;;;;;;;12.50;9.57;;;-5.50;99.90;;;;;;5119610;28;20429;-82
2022/12/13 12:27:28;;;;;;;10.00;7.87;;;-5.50;99.90;;;;;;5119678;28;20482;-82
2022/12/13 12:30:17;;;;;;;10.97;7.87;;;-5.30;99.90;;;;;;5085262;28;20767;-82
2022/12/13 12:33:00;;;;;;;11.53;9.30;;;-5.20;99.90;;;;;;5119808;28;20460;-82
2022/12/13 12:35:52;;;;;;;10.37;8.07;;;-5.20;99.90;;;;;;5099189;28;20491;-82
2022/12/13 12:38:32;;;;;;;10.23;7.70;;;-5.40;99.90;;;;;;5102034;28;20466;-82
2022/12/13 12:41:04;;;;;;;15.47;7.97;;;-5.20;99.90;;;;;;5102794;28;20402;-82
2022/12/13 12:43:39;;;;;;;15.60;13.33;;;-5.00;99.90;;;;;;5105892;28;20518;-82
2022/12/13 12:46:40;;;;;;;12.23;9.10;;;-4.80;99.90;;;;;;5119998;28;20465;-81
2022/12/13 12:49:28;;;;;;;84.00;69.57;;;-4.80;99.90;;;;;;5120410;28;20407;-81
2022/12/13 12:52:12;;;;;;;18.07;11.93;;;-4.80;99.90;;;;;;5105989;28;20482;-81
2022/12/13 12:54:52;;;;;;;12.57;8.37;;;-4.60;99.90;;;;;;5103096;28;20458;-81
2022/12/13 12:57:52;;;;;;;13.70;9.63;;;-4.80;99.90;;;;;;5102100;28;20426;-81
2022/12/13 13:00:23;;;;;;;19.43;10.83;;;-5.00;99.90;;;;;;5079667;28;20418;-81
2022/12/13 13:03:13;;;;;;;19.97;11.13;;;-4.80;99.90;;;;;;5101595;28;20497;-80
2022/12/13 13:05:45;;;;;;;13.23;9.07;;;-4.70;99.90;;;;;;5103349;28;20456;-81
2022/12/13 13:08:19;;;;;;;24.27;18.03;;;-4.60;99.90;;;;;;5102086;28;20413;-81
2022/12/13 13:10:45;;;;;;;53.87;36.00;;;-4.60;99.90;;;;;;5104129;28;20398;-81
2022/12/13 13:13:45;;;;;;;15.33;10.40;;;-4.60;99.90;;;;;;5103708;28;20899;-81
2022/12/13 13:16:26;;;;;;;89.73;49.20;;;-4.60;99.90;;;;;;5102873;28;20440;-81
2022/12/13 13:19:00;;;;;;;62.50;32.40;;;-4.70;99.90;;;;;;5103830;28;20409;-81
2022/12/13 13:21:41;;;;;;;12.83;9.20;;;-4.60;99.90;;;;;;5102802;28;20409;-81
2022/12/13 13:24:06;;;;;;;14.40;8.63;;;-4.60;99.90;;;;;;5102758;28;21018;-81
2022/12/13 13:26:38;;;;;;;10.43;7.20;;;-4.60;99.90;;;;;;5102082;28;20461;-81
2022/12/13 13:29:25;;;;;;;12.97;7.73;;;-4.60;99.90;;;;;;5105257;28;20370;-81
2022/12/13 13:32:24;;;;;;;13.33;7.43;;;-4.60;99.90;;;;;;5103982;28;20413;-81
2022/12/13 13:34:52;;;;;;;10.80;7.33;;;-4.60;99.90;;;;;;5093442;28;20502;-80
2022/12/13 13:37:20;;;;;;;11.40;8.10;;;-4.60;99.90;;;;;;5103898;28;20949;-81
2022/12/13 13:39:58;;;;;;;14.80;10.13;;;-4.50;99.90;;;;;;5102610;28;20422;-81
2022/12/13 13:42:25;;;;;;;14.43;9.47;;;-4.60;99.90;;;;;;5103477;28;20448;-81
2022/12/13 13:44:51;;;;;;;12.67;8.53;;;-4.90;99.90;;;;;;5103988;28;20429;-81
2022/12/13 13:47:16;;;;;;;13.00;7.90;;;-5.00;99.90;;;;;;5103718;28;20802;-81
2022/12/13 13:49:58;;;;;;;14.07;8.37;;;-4.90;99.90;;;;;;5103082;28;20187;-81
2022/12/13 13:52:25;;;;;;;15.13;8.30;;;-4.90;99.90;;;;;;5102611;28;20184;-81
2022/12/13 13:55:29;;;;;;;36.80;33.00;;;-4.80;99.90;;;;;;5102493;28;20472;-81
2022/12/13 13:58:03;;;;;;;15.50;10.20;;;-4.70;99.90;;;;;;5104808;28;20404;-81
2022/12/13 14:00:48;;;;;;;19.73;8.80;;;-4.70;99.90;;;;;;5104092;28;20400;-81
2022/12/13 14:03:49;;;;;;;13.27;8.47;;;-4.70;99.90;;;;;;5103990;28;20414;-81
2022/12/13 14:06:45;;;;;;;13.80;9.03;;;-4.70;99.90;;;;;;5094729;28;20466;-80
2022/12/13 14:09:23;;;;;;;12.17;7.77;;;-4.80;99.90;;;;;;5102725;28;20452;-81
2022/12/13 14:12:03;;;;;;;14.23;8.60;;;-4.80;99.90;;;;;;5102815;28;20409;-81
2022/12/13 14:14:41;;;;;;;17.10;9.47;;;-4.90;99.90;;;;;;5102489;28;20452;-81
2022/12/13 14:17:39;;;;;;;13.90;8.63;;;-4.80;99.90;;;;;;5102424;28;20464;-81
2022/12/13 14:20:18;;;;;;;21.30;9.17;;;-4.90;99.90;;;;;;5104582;28;20394;-81
2022/12/13 14:22:59;;;;;;;16.37;9.57;;;-4.90;99.90;;;;;;5102674;28;20413;-81
2022/12/13 14:25:50;;;;;;;14.67;8.97;;;-4.80;99.90;;;;;;5105122;28;20430;-81
2022/12/13 14:28:27;;;;;;;16.57;8.60;;;-4.90;99.90;;;;;;5103051;28;20404;-81
2022/12/13 14:30:53;;;;;;;13.73;8.33;;;-5.00;99.90;;;;;;5105220;28;20406;-82
2022/12/13 14:33:22;;;;;;;15.47;7.97;;;-5.00;99.90;;;;;;5115334;28;20437;-81
2022/12/13 14:35:59;;;;;;;19.73;10.50;;;-5.10;99.90;;;;;;5134896;28;20211;-81
2022/12/13 14:38:27;;;;;;;16.03;8.90;;;-5.10;99.90;;;;;;5111712;28;20501;-81
2022/12/13 14:41:00;;;;;;;22.07;9.00;;;-5.10;99.90;;;;;;5102325;28;20443;-81
2022/12/13 14:43:31;;;;;;;17.77;9.27;;;-5.20;99.90;;;;;;5102021;28;20400;-81
2022/12/13 14:45:59;;;;;;;12.27;8.87;;;-5.20;99.90;;;;;;5102676;28;20450;-81
2022/12/13 14:48:27;;;;;;;15.13;8.97;;;-5.30;99.90;;;;;;5103345;28;20448;-81
2022/12/13 14:50:53;;;;;;;16.47;9.00;;;-5.30;99.90;;;;;;5103729;28;20416;-81
2022/12/13 14:53:28;;;;;;;14.37;9.00;;;-5.30;99.90;;;;;;5105200;28;20417;-81
2022/12/13 14:56:13;;;;;;;14.80;8.77;;;-5.40;99.90;;;;;;5104564;28;20692;-81
2022/12/13 14:58:50;;;;;;;15.73;9.10;;;-5.40;99.90;;;;;;5102864;28;20412;-81
2022/12/13 15:01:35;;;;;;;17.70;9.40;;;-5.40;99.90;;;;;;5102774;28;20413;-81
2022/12/13 15:04:25;;;;;;;24.40;10.30;;;-5.40;99.90;;;;;;5101971;28;20411;-81
2022/12/13 15:07:24;;;;;;;15.27;9.87;;;-5.40;99.90;;;;;;5104978;28;20936;-81
2022/12/13 15:09:59;;;;;;;18.13;9.70;;;-5.40;99.90;;;;;;5107681;28;20416;-81
2022/12/13 15:12:25;;;;;;;21.23;10.60;;;-5.50;99.90;;;;;;5117730;28;20429;-81
2022/12/13 15:14:59;;;;;;;16.10;9.80;;;-5.60;99.90;;;;;;5118089;28;20450;-81
2022/12/13 15:17:34;;;;;;;16.43;9.63;;;-5.00;99.90;;;;;;5112089;28;20420;-81
2022/12/13 15:20:11;;;;;;;15.70;9.47;;;-5.70;99.90;;;;;;5102618;28;20391;-81
2022/12/13 15:22:36;;;;;;;16.93;9.60;;;-5.80;99.90;;;;;;5100460;28;20430;-81
2022/12/13 15:25:02;;;;;;;24.07;8.67;;;-6.00;99.90;;;;;;5101467;28;20415;-81
2022/12/13 15:27:28;;;;;;;18.23;10.63;;;-6.00;99.90;;;;;;5099816;28;20181;-81
2022/12/13 15:29:54;;;;;;;20.83;10.67;;;-6.00;99.90;;;;;;5099865;28;20223;-81
2022/12/13 15:32:23;;;;;;;18.27;10.10;;;-6.10;99.90;;;;;;5098973;28;20914;-81
2022/12/13 15:34:50;;;;;;;20.27;10.53;;;-6.20;99.90;;;;;;5097711;28;20635;-81
2022/12/13 15:37:31;;;;;;;18.83;10.80;;;-6.30;99.90;;;;;;5098257;28;20436;-81
2022/12/13 15:40:06;;;;;;;21.73;10.20;;;-6.30;99.90;;;;;;5100177;28;20395;-82
2022/12/13 15:42:37;;;;;;;21.63;10.73;;;-6.30;99.90;;;;;;5099106;28;20465;-81
2022/12/13 15:45:14;;;;;;;17.90;10.77;;;-5.30;99.90;;;;;;5098624;28;20411;-81
2022/12/13 15:47:44;;;;;;;20.80;11.50;;;-6.30;99.90;;;;;;5099726;28;20446;-81
2022/12/13 15:50:36;;;;;;;20.73;11.57;;;-6.40;99.90;;;;;;5100396;28;20404;-81
2022/12/13 15:53:05;;;;;;;27.77;13.27;;;-6.40;99.90;;;;;;5099987;28;20559;-81
2022/12/13 15:55:34;;;;;;;24.40;11.53;;;-6.40;99.90;;;;;;5100658;28;20470;-81
2022/12/13 15:58:00;;;;;;;16.63;9.70;;;-6.50;99.90;;;;;;5100975;28;20422;-81
2022/12/13 16:00:33;;;;;;;21.87;10.37;;;-6.50;99.90;;;;;;5101005;28;20469;-81
2022/12/13 16:03:05;;;;;;;23.90;12.83;;;-6.50;99.90;;;;;;5102372;28;20432;-81
2022/12/13 16:05:46;;;;;;;19.30;11.30;;;-6.50;99.90;;;;;;5101136;28;20449;-81
2022/12/13 16:08:25;;;;;;;19.60;10.40;;;-6.50;99.90;;;;;;5103097;28;20410;-81
2022/12/13 16:10:52;;;;;;;16.50;10.03;;;-6.60;99.90;;;;;;5102087;28;20420;-81
2022/12/13 16:13:38;;;;;;;22.73;11.17;;;-6.70;99.90;;;;;;5103021;28;20452;-82
2022/12/13 16:16:22;;;;;;;17.93;9.40;;;-6.90;99.90;;;;;;5102623;28;20467;-82
2022/12/13 16:18:53;;;;;;;17.83;8.97;;;-7.00;99.90;;;;;;5107491;28;20415;-81
2022/12/13 16:21:19;;;;;;;22.17;10.17;;;-7.00;99.90;;;;;;5110029;28;20412;-81
2022/12/13 16:23:45;;;;;;;17.00;10.50;;;-7.00;99.90;;;;;;5121925;28;20452;-80
2022/12/13 16:26:19;;;;;;;19.57;9.60;;;-7.00;99.90;;;;;;5121385;28;20245;-81
2022/12/13 16:28:45;;;;;;;18.40;10.23;;;;;;;;;;5109664;28;20246;-80
2022/12/13 16:31:22;;;;;;;24.77;11.37;;;-6.90;99.90;;;;;;5102279;28;20487;-81
2022/12/13 16:33:48;;;;;;;26.00;13.43;;;-6.90;99.90;;;;;;5104282;28;20386;-81
2022/12/13 16:36:14;;;;;;;47.40;13.30;;;-6.90;99.90;;;;;;5102858;28;20432;-80
2022/12/13 16:38:39;;;;;;;27.13;12.13;;;-6.90;99.90;;;;;;5103798;28;20230;-80
2022/12/13 16:41:06;;;;;;;22.20;10.93;;;;;;;;;;5103869;28;20631;-81
2022/12/13 16:43:35;;;;;;;23.53;11.93;;;-6.80;99.90;;;;;;5103920;28;20204;-80
2022/12/13 16:46:03;;;;;;;19.90;10.77;;;-6.90;99.90;;;;;;5102629;28;20438;-80
2022/12/13 16:48:29;;;;;;;23.00;12.60;;;-6.90;99.90;;;;;;5102257;28;20423;-80
2022/12/13 16:50:56;;;;;;;25.33;12.70;;;-4.80;99.90;;;;;;5102004;28;20421;-80
2022/12/13 16:53:23;;;;;;;19.97;11.67;;;;;;;;;;5101559;28;20194;-80
2022/12/13 16:55:49;;;;;;;21.60;11.47;;;;;;;;;;5103015;28;20985;-80
2022/12/13 16:58:18;;;;;;;20.73;11.73;;;-6.90;99.90;;;;;;5122451;27;20419;-80
2022/12/13 17:00:44;;;;;;;23.07;13.03;;;-6.90;99.90;;;;;;5123359;28;20409;-80
2022/12/13 17:03:12;;;;;;;28.63;14.60;;;-7.00;99.90;;;;;;5122279;28;20419;-80
2022/12/13 17:05:39;;;;;;;28.13;15.20;;;-7.00;99.90;;;;;;5124294;28;20422;-81
2022/12/13 17:08:05;;;;;;;21.73;12.83;;;;;;;;;;5123296;28;20418;-81
2022/12/13 17:10:31;;;;;;;26.50;13.77;;;;;;;;;;5123348;28;20411;-81
2022/12/13 17:12:57;;;;;;;22.70;12.73;;;;;;;;;;5125193;28;20415;-80
2022/12/13 17:15:23;;;;;;;22.40;13.43;;;;;;;;;;5121708;28;20459;-81
2022/12/13 17:17:49;;;;;;;21.70;13.00;;;-6.80;99.90;;;;;;5122174;28;20400;-81
2022/12/13 17:20:17;;;;;;;27.70;14.60;;;-6.80;99.90;;;;;;5121534;28;20447;-80
2022/12/13 17:22:44;;;;;;;25.40;14.13;;;-6.70;99.90;;;;;;5122028;28;20582;-80
2022/12/13 17:25:11;;;;;;;21.83;13.00;;;-6.80;99.90;;;;;;5123875;28;20415;-80
2022/12/13 17:27:38;;;;;;;32.20;15.07;;;-6.80;99.90;;;;;;5121299;28;20419;-81
2022/12/13 17:30:07;;;;;;;29.23;16.33;;;-6.90;99.90;;;;;;5120776;28;20511;-80
2022/12/13 17:32:33;;;;;;;26.27;14.13;;;-6.90;99.90;;;;;;5122268;28;20870;-81
2022/12/13 17:34:59;;;;;;;35.90;16.70;;;;;;;;;;5122171;28;20965;-80
2022/12/13 17:37:25;;;;;;;26.40;14.37;;;-6.90;99.90;;;;;;5121511;28;20500;-81
2022/12/13 17:39:50;;;;;;;26.77;14.57;;;-6.90;99.90;;;;;;5122889;28;20443;-81
2022/12/13 17:42:16;;;;;;;31.67;12.90;;;-6.90;99.90;;;;;;5122689;28;20177;-81
2022/12/13 17:44:42;;;;;;;21.80;12.80;;;;;;;;;;5124753;28;20192;-80
2022/12/13 17:47:08;;;;;;;19.60;12.13;;;-6.90;99.90;;;;;;5123023;28;20557;-81
2022/12/13 17:49:34;;;;;;;22.23;12.03;;;;;;;;;;5124274;28;20514;-80
2022/12/13 17:52:01;;;;;;;25.43;13.27;;;;;;;;;;5122740;28;20421;-80
2022/12/13 17:54:28;;;;;;;23.20;12.57;;;;;;;;;;5122661;28;20465;-80
2022/12/13 17:56:54;;;;;;;21.70;10.97;;;-6.90;99.90;;;;;;5122554;28;20444;-81
2022/12/13 17:59:20;;;;;;;21.30;11.77;;;-6.10;99.90;;;;;;5103497;28;20799;-81
2022/12/13 18:01:46;;;;;;;19.77;11.43;;;-6.90;99.90;;;;;;5122066;28;20243;-81
